Time;durP1;ratioP1;P1;durP2;ratioP2;P2;SDS_P1;SDS_P2;PMS_P1;PMS_P2;Temp;Humidity;BMP_temperature;BMP_pressure;BME280_temperature;BME280_humidity;BME280_pressure;Samples;Min_cycle;Max_cycle;Signal;HPM_P1;HPM_P2
2022/09/14 00:01:43;;;;;;;9.30;5.10;;;;;;;13.89;74.26;98513.23;25041;1316;3026420;-63
2022/09/14 00:04:14;;;;;;;8.40;5.50;;;;;;;13.79;74.15;98517.98;25033;1316;3026556;-59
2022/09/14 00:06:45;;;;;;;8.10;5.70;;;;;;;13.67;74.08;98517.01;25097;1316;3027264;-59
2022/09/14 00:09:16;;;;;;;8.50;4.70;;;;;;;13.55;74.35;98519.61;25078;1316;3026845;-62
2022/09/14 00:11:45;;;;;;;10.00;5.20;;;;;;;13.27;74.95;98522.84;25039;1316;3025966;-60
2022/09/14 00:14:15;;;;;;;8.50;5.40;;;;;;;13.04;75.94;98520.24;25084;1315;3026929;-63
2022/09/14 00:16:44;;;;;;;7.10;3.00;;;;;;;12.96;76.76;98520.94;25070;1316;3027369;-62
2022/09/14 00:19:21;;;;;;;7.60;4.60;;;;;;;13.47;75.69;98525.36;25075;1316;3026472;-59
2022/09/14 00:21:52;;;;;;;7.50;4.60;;;;;;;13.98;73.71;98525.27;25128;1316;3057374;-62
2022/09/14 00:24:21;;;;;;;8.80;5.10;;;;;;;13.98;73.04;98526.95;25072;1316;3026592;-61
2022/09/14 00:26:51;;;;;;;8.10;4.80;;;;;;;13.72;73.53;98526.40;25071;1315;3028405;-62
2022/09/14 00:29:20;;;;;;;8.40;5.90;;;;;;;13.59;74.10;98529.13;25019;1315;3026379;-62
2022/09/14 00:31:49;;;;;;;8.70;5.70;;;;;;;13.41;74.83;98531.64;25074;1315;3026613;-60
2022/09/14 00:34:18;;;;;;;10.30;6.00;;;;;;;13.14;75.34;98530.99;25016;1316;3055089;-61
2022/09/14 00:36:48;;;;;;;4.90;2.90;;;;;;;12.96;76.46;98533.23;25041;1316;3026951;-63
2022/09/14 00:39:18;;;;;;;9.60;4.80;;;;;;;13.50;75.83;98533.71;25070;1316;3050355;-59
2022/09/14 00:41:48;;;;;;;8.50;5.40;;;;;;;13.76;74.05;98532.69;25074;1316;3026431;-63
2022/09/14 00:44:17;;;;;;;9.30;5.50;;;;;;;13.79;74.14;98530.20;25116;1316;3027321;-60
2022/09/14 00:46:47;;;;;;;13.50;5.90;;;;;;;13.72;73.94;98539.23;25030;1315;3028780;-62
2022/09/14 00:49:38;;;;;;;12.40;5.80;;;;;;;13.49;74.47;98541.02;25071;1316;3054771;-63
2022/09/14 00:52:09;;;;;;;7.30;5.40;;;;;;;12.98;76.79;98545.36;25098;1316;3054397;-60
2022/09/14 00:54:47;;;;;;;8.60;6.00;;;;;;;12.86;77.44;98538.30;25103;1316;3026381;-62
2022/09/14 00:57:17;;;;;;;8.10;3.40;;;;;;;12.79;78.09;98546.14;25106;1315;3052203;-60
2022/09/14 00:59:48;;;;;;;7.40;4.40;;;;;;;13.33;76.43;98545.09;25139;1316;3026337;-60
2022/09/14 01:02:19;;;;;;;9.90;5.00;;;;;;;13.47;75.24;98549.48;25037;1315;3030683;-62
2022/09/14 01:04:48;;;;;;;8.00;5.50;;;;;;;13.55;74.89;98545.98;25043;1316;3027053;-61
2022/09/14 01:07:23;;;;;;;7.60;5.10;;;;;;;13.39;75.58;98542.27;25087;1316;3026809;-60
2022/09/14 01:10:12;;;;;;;9.30;5.20;;;;;;;13.16;76.63;98543.52;25076;1316;3054199;-60
2022/09/14 01:12:50;;;;;;;9.10;5.20;;;;;;;12.97;77.16;98549.48;25075;1316;3059359;-59
2022/09/14 01:15:37;;;;;;;5.40;2.70;;;;;;;12.89;77.73;98545.81;25042;1316;3049985;-62
2022/09/14 01:18:20;;;;;;;6.60;4.00;;;;;;;13.36;76.47;98542.02;25086;1316;3055441;-62
2022/09/14 01:20:52;;;;;;;8.70;5.10;;;;;;;13.78;74.62;98542.01;25068;1315;3053970;-61
2022/09/14 01:23:42;;;;;;;6.90;4.70;;;;;;;13.73;74.39;98547.94;25042;1316;3026360;-62
2022/09/14 01:26:42;;;;;;;8.50;5.50;;;;;;;13.48;74.77;98545.34;25095;1316;3051688;-62
2022/09/14 01:29:17;;;;;;;6.90;4.80;;;;;;;13.14;75.99;98548.91;25069;1315;3052441;-60
2022/09/14 01:31:56;;;;;;;8.80;5.20;;;;;;;12.80;76.99;98548.31;25023;1316;3052945;-60
2022/09/14 01:34:50;;;;;;;5.90;2.70;;;;;;;12.72;78.01;98546.91;25049;1316;3056490;-61
2022/09/14 01:37:25;;;;;;;6.40;3.50;;;;;;;13.57;75.63;98545.46;25016;1316;3052562;-61
2022/09/14 01:39:58;;;;;;;6.80;4.10;;;;;;;13.81;73.84;98549.91;25105;1315;3056273;-63
2022/09/14 01:42:28;;;;;;;7.00;4.50;;;;;;;13.60;73.75;98546.45;25087;1315;3026332;-62
2022/09/14 01:45:00;;;;;;;8.30;4.60;;;;;;;13.32;74.87;98547.80;25110;1316;3026453;-61
2022/09/14 01:47:33;;;;;;;8.60;4.70;;;;;;;13.06;75.30;98548.36;25111;1316;3027113;-59
2022/09/14 01:50:17;;;;;;;9.20;4.80;;;;;;;12.86;76.14;98549.05;25099;1316;3026297;-60
2022/09/14 01:52:50;;;;;;;7.30;4.70;;;;;;;12.65;77.20;98560.27;25014;1316;3054015;-63
2022/09/14 01:55:25;;;;;;;3.50;2.10;;;;;;;12.59;77.76;98558.11;25085;1316;3026963;-63
2022/09/14 01:58:08;;;;;;;5.10;3.00;;;;;;;13.10;76.20;98552.44;25082;1315;3048751;-60
2022/09/14 02:00:40;;;;;;;5.90;3.60;;;;;;;13.66;74.05;98553.46;25069;1316;3055173;-61
2022/09/14 02:03:30;;;;;;;8.60;3.90;;;;;;;13.70;73.60;98553.07;25112;1316;3028897;-64
2022/09/14 02:06:09;;;;;;;7.00;4.00;;;;;;;13.41;73.96;98557.93;25067;1316;3071237;-61
2022/09/14 02:08:39;;;;;;;8.60;4.40;;;;;;;12.98;75.52;98556.46;25108;1315;3049394;-62
2022/09/14 02:11:08;;;;;;;6.70;3.70;;;;;;;12.69;76.47;98556.56;25052;1315;3026072;-60
2022/09/14 02:13:37;;;;;;;7.70;3.60;;;;;;;12.52;77.31;98560.36;25025;1315;3068434;-61
2022/09/14 02:16:06;;;;;;;4.00;1.80;;;;;;;12.48;76.95;98558.55;25061;1318;3026878;-64
2022/09/14 02:18:37;;;;;;;4.40;2.30;;;;;;;12.86;75.97;98559.76;25052;1316;3052236;-62
2022/09/14 02:21:11;;;;;;;4.90;2.90;;;;;;;13.32;73.88;98557.27;25072;1316;3026456;-62
2022/09/14 02:23:40;;;;;;;5.30;2.80;;;;;;;13.28;73.30;98561.30;25098;1315;3051379;-60
2022/09/14 02:26:09;;;;;;;5.60;3.20;;;;;;;13.02;74.01;98564.58;25023;1316;3026341;-60
2022/09/14 02:28:40;;;;;;;7.70;3.20;;;;;;;12.82;74.55;98569.39;25049;1315;3071134;-61
2022/09/14 02:31:21;;;;;;;6.40;3.30;;;;;;;12.63;75.14;98566.96;25087;1316;3026732;-64
2022/09/14 02:34:11;;;;;;;7.50;3.30;;;;;;;12.41;76.00;98568.77;25117;1314;3050929;-62
2022/09/14 02:36:50;;;;;;;4.30;2.00;;;;;;;12.30;76.61;98571.23;25072;1315;3071663;-63
2022/09/14 02:39:37;;;;;;;4.70;2.70;;;;;;;12.74;75.50;98565.31;25108;1316;3049279;-59
2022/09/14 02:42:18;;;;;;;4.40;2.40;;;;;;;13.10;74.46;98569.32;25065;1316;3055135;-62
2022/09/14 02:45:11;;;;;;;5.90;2.90;;;;;;;12.91;74.35;98567.44;25057;1314;3054951;-60
2022/09/14 02:48:07;;;;;;;7.60;3.40;;;;;;;12.86;74.76;98575.98;25108;1316;3058549;-61
2022/09/14 02:50:46;;;;;;;7.40;3.10;;;;;;;12.57;75.84;98587.08;25082;1315;3051858;-62
2022/09/14 02:53:23;;;;;;;6.60;2.80;;;;;;;12.28;76.46;98590.75;25043;1315;3053355;-63
2022/09/14 02:56:01;;;;;;;2.80;1.40;;;;;;;12.20;75.97;98592.95;25085;1315;3054570;-61
2022/09/14 02:58:39;;;;;;;3.90;1.40;;;;;;;12.54;74.88;98588.64;24999;1316;3070095;-63
2022/09/14 03:01:10;;;;;;;4.40;1.40;;;;;;;12.55;73.97;98596.24;25038;1316;3047932;-61
2022/09/14 03:03:39;;;;;;;2.80;1.20;;;;;;;12.52;73.70;98599.11;25060;1314;3026181;-63
2022/09/14 03:06:08;;;;;;;2.90;1.30;;;;;;;12.16;74.71;98598.30;25086;1316;3026390;-58
2022/09/14 03:08:37;;;;;;;2.40;1.30;;;;;;;12.15;75.08;98596.15;25046;1315;3048324;-61
2022/09/14 03:11:07;;;;;;;3.50;1.20;;;;;;;11.90;76.41;98602.87;25103;1316;3026817;-59
2022/09/14 03:13:36;;;;;;;1.90;1.20;;;;;;;11.75;76.51;98598.39;24982;1315;3071057;-63
2022/09/14 03:16:10;;;;;;;1.20;0.60;;;;;;;11.63;77.39;98600.80;25111;1315;3026214;-59
2022/09/14 03:18:40;;;;;;;3.70;0.70;;;;;;;12.18;75.67;98602.21;25047;1316;3051684;-61
2022/09/14 03:21:13;;;;;;;1.60;0.90;;;;;;;12.55;73.59;98606.06;25054;1318;3026362;-61
2022/09/14 03:23:47;;;;;;;2.70;0.80;;;;;;;12.47;72.98;98603.89;25109;1315;3048318;-60
2022/09/14 03:26:18;;;;;;;1.10;0.70;;;;;;;12.20;73.42;98603.08;25065;1315;3054634;-59
2022/09/14 03:28:51;;;;;;;3.60;0.80;;;;;;;11.97;74.89;98605.61;25073;1316;3026318;-63
2022/09/14 03:31:20;;;;;;;0.90;0.60;;;;;;;11.75;75.94;98611.41;25086;1316;3027292;-62
2022/09/14 03:33:54;;;;;;;1.50;0.80;;;;;;;11.49;76.55;98599.60;25056;1315;3026353;-59
2022/09/14 03:36:25;;;;;;;1.40;0.50;;;;;;;11.54;76.68;98604.11;25065;1316;3052833;-59
2022/09/14 03:38:56;;;;;;;1.10;0.60;;;;;;;12.14;75.41;98599.09;25061;1315;3026307;-63
2022/09/14 03:41:25;;;;;;;1.50;0.70;;;;;;;12.45;73.56;98599.66;25077;1315;3026650;-58
2022/09/14 03:43:54;;;;;;;1.00;0.90;;;;;;;12.39;73.39;98601.77;25089;1315;3025878;-63
2022/09/14 03:46:24;;;;;;;3.00;0.90;;;;;;;12.26;73.55;98600.70;25043;1316;3058494;-60
2022/09/14 03:48:53;;;;;;;2.50;0.80;;;;;;;12.13;74.00;98602.79;25078;1316;3026743;-61
2022/09/14 03:51:23;;;;;;;1.80;0.90;;;;;;;12.00;74.99;98606.31;25121;1315;3026577;-59
2022/09/14 03:53:52;;;;;;;7.80;1.50;;;;;;;11.94;75.50;98609.92;25070;1316;3026546;-60
2022/09/14 03:56:21;;;;;;;1.50;0.90;;;;;;;11.98;75.29;98607.88;25071;1316;3050815;-60
2022/09/14 03:58:50;;;;;;;3.50;1.20;;;;;;;12.75;73.66;98609.20;25153;1316;3026292;-62
2022/09/14 04:01:20;;;;;;;2.80;1.50;;;;;;;13.12;72.20;98613.85;25055;1315;3026662;-62
2022/09/14 04:03:49;;;;;;;3.90;1.60;;;;;;;13.03;73.07;98613.38;25055;1315;3049501;-64
2022/09/14 04:06:19;;;;;;;2.70;1.60;;;;;;;12.93;73.24;98617.02;25134;1316;3027074;-60
2022/09/14 04:08:48;;;;;;;2.80;2.00;;;;;;;12.70;73.68;98625.42;25054;1316;3026588;-63
2022/09/14 04:11:19;;;;;;;4.20;2.40;;;;;;;12.47;74.58;98623.95;25022;1316;3053074;-61
2022/09/14 04:13:49;;;;;;;3.00;1.20;;;;;;;12.34;75.50;98628.33;25079;1315;3026604;-62
2022/09/14 04:16:19;;;;;;;3.10;1.60;;;;;;;12.71;75.94;98623.40;25158;1316;3026617;-63
2022/09/14 04:18:49;;;;;;;4.40;1.70;;;;;;;13.25;73.74;98627.34;25098;1316;3027254;-62
2022/09/14 04:21:19;;;;;;;3.00;1.80;;;;;;;13.18;73.60;98630.02;25062;1315;3026988;-64
2022/09/14 04:23:51;;;;;;;3.10;2.20;;;;;;;12.82;74.89;98636.86;25116;1315;3051853;-62
2022/09/14 04:26:21;;;;;;;5.20;2.50;;;;;;;12.66;75.93;98639.23;25116;1316;3026507;-63
2022/09/14 04:28:50;;;;;;;5.30;2.90;;;;;;;12.61;75.43;98645.48;25039;1316;3026444;-63
2022/09/14 04:31:19;;;;;;;5.40;3.00;;;;;;;12.50;75.35;98643.91;25068;1315;3026684;-63
2022/09/14 04:33:50;;;;;;;2.40;1.50;;;;;;;12.47;75.74;98645.71;25081;1316;3070955;-62
2022/09/14 04:36:21;;;;;;;4.70;2.20;;;;;;;13.00;75.56;98651.70;25053;1314;3027126;-65
2022/09/14 04:38:51;;;;;;;5.90;3.40;;;;;;;13.30;74.13;98650.46;25121;1316;3030444;-59
2022/09/14 04:41:21;;;;;;;4.50;2.20;;;;;;;13.49;72.88;98657.72;25111;1315;3027049;-63
2022/09/14 04:43:51;;;;;;;4.90;2.20;;;;;;;13.28;72.55;98663.30;25193;1313;3027013;-59
2022/09/14 04:46:28;;;;;;;4.30;2.80;;;;;;;13.05;73.26;98666.05;25072;1315;3028125;-64
2022/09/14 04:48:57;;;;;;;4.20;2.70;;;;;;;12.91;73.36;98665.17;25094;1316;3055514;-61
2022/09/14 04:51:29;;;;;;;6.10;3.00;;;;;;;12.61;74.73;98665.17;25052;1315;3027394;-60
2022/09/14 04:53:58;;;;;;;19.20;2.30;;;;;;;12.37;76.23;98669.34;25055;1315;3049627;-63
2022/09/14 04:56:29;;;;;;;5.80;2.00;;;;;;;12.95;74.93;98664.23;25061;1315;3026510;-62
2022/09/14 04:59:00;;;;;;;5.60;3.10;;;;;;;13.50;72.85;98660.77;25127;1315;3026920;-63
2022/09/14 05:01:32;;;;;;;5.20;2.70;;;;;;;13.38;72.34;98659.13;25079;1315;3026577;-61
2022/09/14 05:04:02;;;;;;;5.20;2.90;;;;;;;13.22;72.66;98668.90;25060;1315;3026471;-60
2022/09/14 05:06:32;;;;;;;9.20;3.70;;;;;;;13.01;73.02;98670.61;25067;1316;3026538;-64
2022/09/14 05:09:03;;;;;;;6.10;3.50;;;;;;;12.80;73.73;98667.81;25041;1315;3027034;-64
2022/09/14 05:11:36;;;;;;;7.80;3.50;;;;;;;12.58;74.50;98671.55;25058;1315;3058117;-62
2022/09/14 05:14:06;;;;;;;8.10;3.80;;;;;;;12.50;74.72;98671.63;25014;1315;3026598;-59
2022/09/14 05:16:36;;;;;;;3.70;1.90;;;;;;;12.40;74.89;98678.98;25082;1315;3026298;-62
2022/09/14 05:19:07;;;;;;;8.10;3.00;;;;;;;12.92;73.90;98675.11;25100;1316;3026486;-59
2022/09/14 05:21:36;;;;;;;11.10;4.00;;;;;;;13.40;71.71;98666.50;25108;1314;3026698;-61
2022/09/14 05:24:26;;;;;;;6.70;3.30;;;;;;;13.41;71.51;98669.06;25125;1315;3027266;-60
2022/09/14 05:26:55;;;;;;;5.80;3.80;;;;;;;13.16;71.86;98671.87;25112;1316;3051411;-63
2022/09/14 05:29:24;;;;;;;8.00;4.40;;;;;;;12.98;72.39;98677.08;25043;1316;3026924;-59
2022/09/14 05:31:53;;;;;;;10.00;4.00;;;;;;;12.76;73.29;98677.28;25149;1315;3053521;-63
2022/09/14 05:34:22;;;;;;;10.50;3.70;;;;;;;12.77;73.24;98674.78;25130;1315;3026438;-59
2022/09/14 05:36:51;;;;;;;8.30;3.70;;;;;;;12.68;73.97;98676.13;25103;1315;3052376;-59
2022/09/14 05:39:23;;;;;;;6.80;3.30;;;;;;;12.76;73.62;98680.57;25040;1316;3027415;-58
2022/09/14 05:41:52;;;;;;;8.00;3.20;;;;;;;13.27;72.92;98682.04;25119;1316;3028172;-61
2022/09/14 05:44:21;;;;;;;6.60;3.80;;;;;;;13.73;71.43;98678.89;25055;1316;3026937;-59
2022/09/14 05:46:51;;;;;;;9.00;3.30;;;;;;;13.74;70.83;98681.08;25106;1316;3055106;-63
2022/09/14 05:49:19;;;;;;;7.50;3.70;;;;;;;13.49;71.37;98688.77;25067;1315;3026517;-61
2022/09/14 05:51:48;;;;;;;9.50;4.50;;;;;;;13.33;71.66;98688.88;25128;1316;3051459;-61
2022/09/14 05:54:18;;;;;;;7.50;4.10;;;;;;;13.16;72.57;98687.00;25086;1315;3026604;-62
2022/09/14 05:56:47;;;;;;;7.80;4.20;;;;;;;13.01;72.82;98691.91;25084;1315;3058501;-61
2022/09/14 05:59:16;;;;;;;5.00;2.60;;;;;;;12.83;73.87;98695.86;25048;1315;3026763;-60
2022/09/14 06:01:47;;;;;;;7.60;3.20;;;;;;;13.42;72.77;98698.05;25068;1315;3054065;-61
2022/09/14 06:04:16;;;;;;;10.50;3.90;;;;;;;13.64;71.75;98698.08;25059;1315;3026603;-62
2022/09/14 06:06:45;;;;;;;5.80;3.30;;;;;;;13.53;71.92;98703.61;25078;1315;3054776;-60
2022/09/14 06:09:14;;;;;;;9.10;4.30;;;;;;;13.39;72.28;98715.69;25059;1315;3026627;-60
2022/09/14 06:11:43;;;;;;;5.80;3.50;;;;;;;13.10;73.34;98711.52;25096;1315;3047996;-64
2022/09/14 06:14:18;;;;;;;7.50;4.00;;;;;;;12.99;73.42;98717.71;25029;1315;3027577;-59
2022/09/14 06:16:47;;;;;;;4.20;2.20;;;;;;;12.91;73.67;98713.14;25018;1316;3055250;-63
2022/09/14 06:19:16;;;;;;;5.90;3.20;;;;;;;13.53;72.99;98716.95;25101;1315;3026345;-62
2022/09/14 06:21:45;;;;;;;5.10;3.40;;;;;;;13.87;71.19;98719.39;25008;1315;3054218;-60
2022/09/14 06:24:14;;;;;;;5.70;3.70;;;;;;;13.75;71.02;98721.05;25104;1315;3026515;-63
2022/09/14 06:26:43;;;;;;;7.40;3.70;;;;;;;13.72;71.06;98719.55;25046;1315;3048492;-62
2022/09/14 06:29:13;;;;;;;5.80;4.00;;;;;;;13.55;71.99;98719.98;25193;1316;3026852;-62
2022/09/14 06:31:42;;;;;;;8.00;3.90;;;;;;;13.47;71.83;98725.61;25148;1315;3069220;-63
2022/09/14 06:34:11;;;;;;;7.70;4.00;;;;;;;13.41;71.16;98724.30;25020;1315;3026245;-59
2022/09/14 06:36:40;;;;;;;7.80;4.50;;;;;;;13.14;72.21;98721.24;25069;1315;3055985;-62
2022/09/14 06:39:09;;;;;;;5.30;2.80;;;;;;;13.11;73.05;98721.48;25073;1316;3026130;-61
2022/09/14 06:41:38;;;;;;;5.40;3.60;;;;;;;13.77;71.56;98723.89;25130;1315;3055770;-61
2022/09/14 06:44:14;;;;;;;5.70;4.00;;;;;;;14.03;69.81;98723.63;25047;1315;3055301;-63
2022/09/14 06:46:44;;;;;;;6.80;3.80;;;;;;;14.18;69.19;98725.64;25021;1316;3026171;-62
2022/09/14 06:49:19;;;;;;;9.40;4.10;;;;;;;13.94;69.75;98720.87;25049;1314;3055653;-62
2022/09/14 06:51:49;;;;;;;14.40;4.70;;;;;;;13.94;69.53;98733.05;25068;1316;3051285;-60
2022/09/14 06:54:18;;;;;;;9.50;5.70;;;;;;;13.63;70.44;98740.95;25126;1315;3026757;-63
2022/09/14 06:56:47;;;;;;;10.30;4.90;;;;;;;13.47;71.28;98741.20;25104;1315;3026435;-64
2022/09/14 06:59:16;;;;;;;9.70;5.60;;;;;;;13.33;71.69;98743.56;25088;1316;3052861;-63
2022/09/14 07:01:48;;;;;;;10.50;3.40;;;;;;;13.29;72.32;98748.31;25034;1316;3027493;-63
2022/09/14 07:04:17;;;;;;;5.30;4.20;;;;;;;13.96;70.62;98752.23;25176;1315;3027682;-60
2022/09/14 07:06:48;;;;;;;7.20;4.80;;;;;;;14.34;68.96;98746.86;25033;1315;3026400;-63
2022/09/14 07:09:18;;;;;;;8.70;5.30;;;;;;;14.16;68.87;98746.27;25012;1315;3067735;-62
2022/09/14 07:11:48;;;;;;;10.60;6.30;;;;;;;13.96;69.58;98746.27;25030;1315;3026370;-62
2022/09/14 07:14:19;;;;;;;9.30;6.10;;;;;;;13.72;70.35;98747.58;25069;1316;3027544;-61
2022/09/14 07:16:49;;;;;;;10.90;5.90;;;;;;;13.64;70.84;98754.09;25131;1315;3026179;-65
2022/09/14 07:19:18;;;;;;;8.70;6.50;;;;;;;13.64;70.63;98751.57;25114;1314;3027453;-65
2022/09/14 07:21:48;;;;;;;9.90;6.60;;;;;;;13.47;70.86;98752.84;25023;1315;3053964;-63
2022/09/14 07:24:17;;;;;;;6.80;3.80;;;;;;;13.41;71.75;98744.94;25006;1315;3027396;-63
2022/09/14 07:26:46;;;;;;;11.00;5.70;;;;;;;14.09;69.92;98749.35;25044;1315;3026439;-64
2022/09/14 07:29:17;;;;;;;11.70;5.80;;;;;;;14.84;67.01;98737.72;25060;1315;3053267;-65
2022/09/14 07:31:51;;;;;;;9.10;6.00;;;;;;;14.57;67.12;98743.61;25076;1316;3027946;-60
2022/09/14 07:34:20;;;;;;;11.50;6.70;;;;;;;14.55;66.56;98746.21;25054;1315;3059418;-65
2022/09/14 07:36:49;;;;;;;13.90;6.10;;;;;;;14.26;67.70;98749.98;25050;1315;3026764;-62
2022/09/14 07:39:18;;;;;;;8.30;6.00;;;;;;;14.22;67.94;98750.36;25088;1315;3026399;-66
2022/09/14 07:41:47;;;;;;;7.90;6.10;;;;;;;14.07;68.45;98747.21;25039;1315;3055326;-63
2022/09/14 07:44:17;;;;;;;10.50;6.00;;;;;;;14.04;68.81;98750.79;25051;1315;3030024;-62
2022/09/14 07:46:47;;;;;;;9.60;6.20;;;;;;;13.99;68.46;98749.13;25068;1316;3026782;-64
2022/09/14 07:49:16;;;;;;;9.60;5.80;;;;;;;13.95;68.53;98746.48;25036;1315;3026785;-63
2022/09/14 07:51:45;;;;;;;11.20;6.30;;;;;;;13.85;68.43;98756.65;25088;1316;3049471;-61
2022/09/14 07:54:15;;;;;;;6.80;3.60;;;;;;;13.74;68.98;98758.84;25067;1316;3026360;-61
2022/09/14 07:56:45;;;;;;;9.80;4.40;;;;;;;14.74;66.46;98763.75;25133;1315;3058950;-61
2022/09/14 07:59:14;;;;;;;12.60;5.00;;;;;;;14.96;64.64;98752.00;25314;1315;3026839;-62
2022/09/14 08:01:44;;;;;;;8.20;4.80;;;;;;;15.08;64.38;98758.27;25086;1315;3052774;-63
2022/09/14 08:04:13;;;;;;;8.20;5.30;;;;;;;14.97;63.73;98764.23;25073;1315;3026450;-63
2022/09/14 08:06:42;;;;;;;8.30;4.80;;;;;;;14.73;64.29;98765.62;25015;1316;3026509;-61
2022/09/14 08:09:11;;;;;;;9.30;4.70;;;;;;;14.65;65.06;98757.87;25089;1315;3054380;-62
2022/09/14 08:11:42;;;;;;;8.40;4.70;;;;;;;14.42;65.68;98753.86;25144;1316;3026638;-63
2022/09/14 08:14:12;;;;;;;10.20;6.20;;;;;;;14.30;65.63;98756.65;25028;1315;3026852;-61
2022/09/14 08:16:42;;;;;;;11.10;6.00;;;;;;;14.23;65.70;98756.27;25061;1316;3026786;-62
2022/09/14 08:19:36;;;;;;;9.90;5.80;;;;;;;14.10;66.48;98759.68;25066;1315;3051763;-63
2022/09/14 08:22:05;;;;;;;12.00;5.70;;;;;;;14.00;67.44;98754.00;25084;1313;3026627;-65
2022/09/14 08:24:35;;;;;;;9.60;6.70;;;;;;;13.96;67.68;98763.27;25041;1315;3056186;-62
2022/09/14 08:27:04;;;;;;;12.10;6.00;;;;;;;13.76;68.33;98759.89;25128;1315;3026478;-62
2022/09/14 08:29:33;;;;;;;5.30;3.40;;;;;;;13.94;68.14;98763.14;25039;1316;3052102;-61
2022/09/14 08:32:02;;;;;;;9.20;4.80;;;;;;;14.73;66.64;98769.52;25223;1316;3026124;-64
2022/09/14 08:34:29;;;;;;;9.20;4.80;;;;;;;14.98;64.60;98765.02;24258;1315;4848307;-65
2022/09/14 08:36:58;;;;;;;12.70;6.50;;;;;;;15.06;64.34;98765.18;25124;1315;3052255;-64
2022/09/14 08:39:27;;;;;;;6.90;4.80;;;;;;;15.15;63.12;98769.44;25105;1314;3026310;-65
2022/09/14 08:41:58;;;;;;;9.80;5.90;;;;;;;15.00;63.60;98773.16;25076;1315;3051222;-61
2022/09/14 08:44:27;;;;;;;7.20;4.90;;;;;;;14.75;64.68;98771.63;25065;1316;3026329;-64
2022/09/14 08:47:02;;;;;;;11.00;5.10;;;;;;;14.51;65.57;98760.14;25047;1316;3027556;-62
2022/09/14 08:49:50;;;;;;;10.70;5.30;;;;;;;14.47;65.51;98765.23;25123;1315;3026806;-62
2022/09/14 08:52:46;;;;;;;9.20;5.50;;;;;;;14.40;66.26;98761.48;25063;1315;3053318;-63
2022/09/14 08:55:27;;;;;;;10.40;6.00;;;;;;;14.49;65.96;98759.99;25110;1314;3052623;-62
2022/09/14 08:58:14;;;;;;;8.70;5.30;;;;;;;14.21;67.14;98761.31;25075;1313;3055912;-63
2022/09/14 09:00:51;;;;;;;8.60;6.10;;;;;;;14.24;67.02;98762.27;25203;1313;3069379;-64
2022/09/14 09:03:23;;;;;;;9.80;5.60;;;;;;;14.17;67.28;98757.66;25067;1317;3051734;-62
2022/09/14 09:06:12;;;;;;;9.40;6.30;;;;;;;14.30;67.11;98755.86;25035;1316;3026679;-62
2022/09/14 09:08:48;;;;;;;8.50;3.80;;;;;;;14.44;67.30;98759.90;25105;1313;3054885;-64
2022/09/14 09:11:20;;;;;;;10.50;5.90;;;;;;;15.00;66.16;98762.00;25095;1315;3059344;-63
2022/09/14 09:13:49;;;;;;;11.00;5.60;;;;;;;15.34;64.80;98759.12;25116;1313;3026982;-64
2022/09/14 09:16:20;;;;;;;8.70;5.50;;;;;;;15.67;63.86;98769.45;25092;1313;3026299;-64
2022/09/14 09:19:01;;;;;;;7.50;5.60;;;;;;;15.37;63.86;98773.65;25047;1315;3026964;-62
2022/09/14 09:21:35;;;;;;;16.50;6.60;;;;;;;14.88;65.03;98773.98;25069;1313;3071575;-64
2022/09/14 09:24:24;;;;;;;9.00;6.10;;;;;;;14.93;65.56;98776.42;25069;1316;3049652;-62
2022/09/14 09:26:53;;;;;;;11.60;6.20;;;;;;;14.82;66.18;98774.54;25016;1315;3051912;-61
2022/09/14 09:29:22;;;;;;;12.40;6.60;;;;;;;14.73;66.18;98771.96;25123;1315;3026346;-62
2022/09/14 09:32:19;;;;;;;13.60;7.60;;;;;;;14.66;66.61;98772.29;25079;1313;3051593;-63
2022/09/14 09:34:55;;;;;;;11.20;6.60;;;;;;;14.70;66.72;98777.16;25026;1313;3057136;-62
2022/09/14 09:37:37;;;;;;;12.40;7.10;;;;;;;14.83;65.87;98785.20;25087;1314;3052650;-62
2022/09/14 09:40:36;;;;;;;10.30;6.00;;;;;;;14.70;66.32;98787.04;25060;1315;3026519;-68
2022/09/14 09:43:07;;;;;;;9.20;5.90;;;;;;;14.60;66.98;98781.89;25050;1315;3049947;-62
2022/09/14 09:45:56;;;;;;;5.30;3.50;;;;;;;14.63;67.16;98791.21;25101;1315;3026228;-63
2022/09/14 09:48:45;;;;;;;9.80;5.60;;;;;;;15.17;66.40;98792.25;25068;1313;3054520;-63
2022/09/14 09:51:24;;;;;;;7.80;5.10;;;;;;;15.59;64.20;98795.10;25030;1316;3071591;-62
2022/09/14 09:54:06;;;;;;;9.50;5.90;;;;;;;15.54;64.00;98797.19;25073;1316;3049243;-63
2022/09/14 09:56:59;;;;;;;8.80;5.20;;;;;;;15.39;64.07;98799.92;25024;1314;3052514;-64
2022/09/14 09:59:29;;;;;;;9.40;5.40;;;;;;;15.03;65.30;98802.33;25007;1315;3055768;-64
2022/09/14 10:02:26;;;;;;;11.10;4.80;;;;;;;14.90;66.00;98798.36;25223;1312;3026688;-62
2022/09/14 10:05:07;;;;;;;8.00;5.20;;;;;;;14.74;66.82;98795.72;25938;1313;3049496;-60
2022/09/14 10:07:49;;;;;;;5.80;4.40;;;;;;;14.71;67.09;98795.11;25982;1312;3054056;-63
2022/09/14 10:10:22;;;;;;;8.20;5.10;;;;;;;14.75;66.73;98800.16;25632;1312;3051484;-64
2022/09/14 10:13:34;;;;;;;9.40;5.00;;;;;;;14.62;66.86;98802.57;25083;1316;3068141;-62
2022/09/14 10:16:14;;;;;;;6.10;4.40;;;;;;;14.60;67.02;98799.22;25101;1315;3048945;-63
2022/09/14 10:18:48;;;;;;;7.30;4.50;;;;;;;14.65;66.70;98799.27;25096;1313;3051814;-61
2022/09/14 10:21:21;;;;;;;8.70;4.40;;;;;;;14.61;67.57;98794.69;25063;1313;3054413;-63
2022/09/14 10:24:16;;;;;;;5.20;3.30;;;;;;;14.51;68.35;98797.29;25023;1316;3026625;-64
2022/09/14 10:26:45;;;;;;;5.60;3.70;;;;;;;15.29;65.84;98789.77;25121;1316;3049738;-61
2022/09/14 10:29:39;;;;;;;7.00;4.40;;;;;;;15.81;63.87;98795.00;25055;1316;3026582;-61
2022/09/14 10:32:18;;;;;;;5.20;3.90;;;;;;;15.80;63.31;98791.28;25175;1316;3051886;-64
2022/09/14 10:34:47;;;;;;;8.70;4.20;;;;;;;15.66;63.28;98782.83;25100;1316;3069156;-64
2022/09/14 10:37:31;;;;;;;6.10;3.60;;;;;;;15.46;63.82;98778.27;25128;1313;3028313;-62
2022/09/14 10:40:15;;;;;;;8.50;4.70;;;;;;;15.59;63.79;98779.05;25138;1314;3053962;-63
2022/09/14 10:43:06;;;;;;;7.20;4.60;;;;;;;15.43;63.61;98786.89;25012;1315;3054810;-63
2022/09/14 10:45:40;;;;;;;6.00;3.90;;;;;;;15.28;63.35;98780.29;25063;1316;3058641;-64
2022/09/14 10:48:13;;;;;;;5.50;3.50;;;;;;;15.23;63.50;98780.89;25081;1315;3053470;-62
2022/09/14 10:50:49;;;;;;;;;;;;;;;15.20;63.28;98778.91;25096;1316;3054012;-61
2022/09/14 10:53:49;;;;;;;7.30;4.70;;;;;;;14.99;64.17;98780.59;25040;1315;3051910;-61
2022/09/14 10:56:37;;;;;;;7.60;4.40;;;;;;;15.08;63.89;98776.23;25013;1315;3071104;-59
2022/09/14 10:59:14;;;;;;;6.10;4.10;;;;;;;15.02;64.47;98775.95;25091;1316;3051359;-61
2022/09/14 11:01:53;;;;;;;8.60;4.80;;;;;;;15.20;64.10;98767.65;25081;1313;3054028;-62
2022/09/14 11:04:40;;;;;;;8.90;4.90;;;;;;;15.22;63.77;98768.30;25061;1315;3055329;-62
2022/09/14 11:07:19;;;;;;;6.10;4.30;;;;;;;15.24;64.32;98765.27;25124;1313;3058956;-61
2022/09/14 11:10:12;;;;;;;8.70;4.10;;;;;;;15.49;63.31;98775.60;25070;1313;3049984;-64
2022/09/14 11:13:08;;;;;;;7.20;4.60;;;;;;;15.51;62.33;98769.58;25146;1313;3053712;-61
2022/09/14 11:15:42;;;;;;;5.70;3.40;;;;;;;15.56;62.08;98774.06;25096;1313;3051420;-60
2022/09/14 11:18:14;;;;;;;7.40;3.90;;;;;;;15.56;60.97;98778.77;25070;1315;3027037;-63
2022/09/14 11:20:51;;;;;;;6.40;4.10;;;;;;;15.70;60.26;98774.30;25153;1313;3028062;-64
2022/09/14 11:23:34;;;;;;;6.40;4.00;;;;;;;15.88;59.91;98774.83;25087;1313;3053647;-62
2022/09/14 11:26:04;;;;;;;8.00;3.90;;;;;;;16.03;58.83;98765.83;25014;1316;3055132;-63
2022/09/14 11:28:40;;;;;;;6.00;3.20;;;;;;;16.11;58.58;98777.82;25156;1316;3026240;-64
2022/09/14 11:31:20;;;;;;;5.10;3.50;;;;;;;15.94;57.85;98770.06;25112;1315;3054681;-62
2022/09/14 11:33:56;;;;;;;6.50;3.70;;;;;;;15.92;58.47;98767.17;25074;1316;3052702;-63
2022/09/14 11:36:34;;;;;;;6.40;3.80;;;;;;;16.13;58.03;98761.02;25120;1315;3057068;-62
2022/09/14 11:39:11;;;;;;;6.00;3.40;;;;;;;16.34;57.76;98767.31;25094;1316;3049598;-61
2022/09/14 11:41:42;;;;;;;4.80;3.40;;;;;;;16.50;57.12;98753.77;25011;1316;3055549;-61
2022/09/14 11:44:15;;;;;;;5.00;3.40;;;;;;;16.59;56.13;98763.35;25113;1316;3026255;-62
2022/09/14 11:46:51;;;;;;;4.20;3.30;;;;;;;16.59;55.71;98764.24;25058;1316;3052265;-61
2022/09/14 11:49:39;;;;;;;5.10;3.30;;;;;;;16.52;55.76;98759.37;25016;1315;3053646;-63